Rusty Hill — WDA6027 — position and weather

sailwx.info

Track history (hours):
 
Tides and Currents Weather Stations Pressure Air Temp Water Temp Dewpoint Dewpoint Depression Visibility Wind Speed Wind Dir Waves Ship Positions

Rusty Hill

Owner: Blessey Enterprises, Inc., HARAHAN, LA. More information available from US FCC via Universal Licensing System.

Last reported at 2017-Nov-14 19:53 UTC. Time now 2017-Nov-18 19:57 UTC.
Position N 29°32' W 094°54'.

Length 43 m; draft 2.6 m.

Type: Tug. MMSI: 366826930.

Date/timePositionNaut miles runAvg speedWind from/ knotsBaromVisibWave heightAir tempDewpointWater temp
2017-Nov-14 19:53N 29°32' W 094°54'3 7.0
2017-Nov-14 19:30N 29°34' W 094°55'4 6.9
2017-Nov-14 19:00N 29°37' W 094°57'4 7.7
2017-Nov-14 18:30N 29°41' W 094°59'3 5.9
2017-Nov-14 18:00N 29°43' W 095°01'5 0.5
2017-Nov-14 08:58N 29°45' W 095°06'5 6.1
2017-Nov-14 08:10N 29°44' W 095°12'0 0.0
2017-Nov-13 22:07N 29°44' W 095°12'0 0.6
2017-Nov-13 21:57N 29°44' W 095°12'9 0.4
2017-Nov-12 21:43N 29°44' W 095°02'1 5.2
2017-Nov-12 21:30N 29°43' W 095°01'3 5.2
2017-Nov-12 20:59N 29°41' W 094°59'3 5.5
2017-Nov-12 20:30N 29°38' W 094°58'2 3.8
2017-Nov-12 20:00N 29°37' W 094°59'2 2.3
2017-Nov-12 19:12N 29°37' W 095°01'0 1.1
2017-Nov-12 19:00N 29°37' W 095°01'3 6.0
2017-Nov-12 18:30N 29°37' W 094°58'4 7.2
2017-Nov-12 18:00N 29°41' W 094°59'4 6.7
2017-Nov-12 17:27N 29°44' W 095°02'4 0.4
2017-Nov-12 05:06N 29°47' W 095°05'0 0.0
2017-Nov-12 05:00N 29°47' W 095°05'0 0.0
2017-Nov-12 03:29N 29°47' W 095°05'  
2017-Nov-05 18:21N 29°44' W 095°03'2 5.8
2017-Nov-05 18:00N 29°43' W 095°01'3 5.7
2017-Nov-05 17:30N 29°41' W 094°59'3 6.6
2017-Nov-05 17:00N 29°38' W 094°58'3 5.4
2017-Nov-05 16:30N 29°37' W 095°00'1 1.8
2017-Nov-05 16:00N 29°37' W 095°01'2 3.1
2017-Nov-05 15:30N 29°37' W 094°60'2 4.3
2017-Nov-05 15:00N 29°38' W 094°58'4 7.1
2017-Nov-05 14:30N 29°42' W 094°60'3 6.3
2017-Nov-05 13:59N 29°44' W 095°02'  
Track history (hours):
 
Tides and Currents Weather Stations Pressure Air Temp Water Temp Dewpoint Dewpoint Depression Visibility Wind Speed Wind Dir Waves Ship Positions

Rusty Hill

Owner: Blessey Enterprises, Inc., HARAHAN, LA. More information available from US FCC via Universal Licensing System.

Last reported at 2017-Nov-14 19:53 UTC. Time now 2017-Nov-18 19:57 UTC.
Position N 29°32' W 094°54'.

Length 43 m; draft 2.6 m.

Type: Tug. MMSI: 366826930.

Date/timePositionNaut miles runAvg speedWind from/ knotsBaromVisibWave heightAir tempDewpointWater temp
2017-Nov-14 19:53N 29°32' W 094°54'3 7.0
2017-Nov-14 19:30N 29°34' W 094°55'4 6.9
2017-Nov-14 19:00N 29°37' W 094°57'4 7.7
2017-Nov-14 18:30N 29°41' W 094°59'3 5.9
2017-Nov-14 18:00N 29°43' W 095°01'5 0.5
2017-Nov-14 08:58N 29°45' W 095°06'5 6.1
2017-Nov-14 08:10N 29°44' W 095°12'0 0.0
2017-Nov-13 22:07N 29°44' W 095°12'0 0.6
2017-Nov-13 21:57N 29°44' W 095°12'9 0.4
2017-Nov-12 21:43N 29°44' W 095°02'1 5.2
2017-Nov-12 21:30N 29°43' W 095°01'3 5.2
2017-Nov-12 20:59N 29°41' W 094°59'3 5.5
2017-Nov-12 20:30N 29°38' W 094°58'2 3.8
2017-Nov-12 20:00N 29°37' W 094°59'2 2.3
2017-Nov-12 19:12N 29°37' W 095°01'0 1.1
2017-Nov-12 19:00N 29°37' W 095°01'3 6.0
2017-Nov-12 18:30N 29°37' W 094°58'4 7.2
2017-Nov-12 18:00N 29°41' W 094°59'4 6.7
2017-Nov-12 17:27N 29°44' W 095°02'4 0.4
2017-Nov-12 05:06N 29°47' W 095°05'0 0.0
2017-Nov-12 05:00N 29°47' W 095°05'0 0.0
2017-Nov-12 03:29N 29°47' W 095°05'  
2017-Nov-05 18:21N 29°44' W 095°03'2 5.8
2017-Nov-05 18:00N 29°43' W 095°01'3 5.7
2017-Nov-05 17:30N 29°41' W 094°59'3 6.6
2017-Nov-05 17:00N 29°38' W 094°58'3 5.4
2017-Nov-05 16:30N 29°37' W 095°00'1 1.8
2017-Nov-05 16:00N 29°37' W 095°01'2 3.1
2017-Nov-05 15:30N 29°37' W 094°60'2 4.3
2017-Nov-05 15:00N 29°38' W 094°58'4 7.1
2017-Nov-05 14:30N 29°42' W 094°60'3 6.3
2017-Nov-05 13:59N 29°44' W 095°02'  

Dump ship's entire track history